Time;durP1;ratioP1;P1;durP2;ratioP2;P2;SDS_P1;SDS_P2;PMS_P1;PMS_P2;Temp;Humidity;BMP_temperature;BMP_pressure;BME280_temperature;BME280_humidity;BME280_pressure;Samples;Min_cycle;Max_cycle;Signal;HPM_P1;HPM_P2
2022/01/13 00:03:50;;;;;;;12.40;8.15;;;2.10;99.90;;;;;;7325614;19;20788;-88
2022/01/13 00:07:23;;;;;;;10.18;7.65;;;2.20;99.90;;;;;;7406756;19;20436;-86
2022/01/13 00:11:29;;;;;;;10.45;8.23;;;2.20;99.90;;;;;;7389739;19;20376;-86
2022/01/13 00:15:25;;;;;;;10.30;7.60;;;2.20;99.90;;;;;;7412346;19;20373;-92
2022/01/13 00:26:26;;;;;;;9.05;7.57;;;2.30;99.90;;;;;;7413109;19;20368;-89
2022/01/13 00:29:39;;;;;;;10.02;8.35;;;2.30;99.90;;;;;;7185300;19;2004107;-83
2022/01/13 00:33:08;;;;;;;9.80;8.30;;;2.30;99.90;;;;;;7098453;19;2004370;-86
2022/01/13 00:36:38;;;;;;;9.07;8.18;;;2.30;99.90;;;;;;7298873;19;2004472;-83
2022/01/13 00:40:13;;;;;;;11.82;7.95;;;2.30;99.90;;;;;;7223934;19;20348;-85
2022/01/13 00:43:16;;;;;;;10.35;8.32;;;2.30;99.90;;;;;;7196754;19;2004825;-82
2022/01/13 00:46:30;;;;;;;9.65;8.00;;;2.30;99.90;;;;;;7189858;19;2004290;-84
2022/01/13 00:49:51;;;;;;;14.07;8.43;;;2.30;99.90;;;;;;7136280;19;2004456;-84
2022/01/13 00:53:24;;;;;;;10.80;8.30;;;2.40;99.90;;;;;;7187173;19;2004844;-88
2022/01/13 00:56:12;;;;;;;10.40;9.00;;;2.30;99.90;;;;;;7123249;19;2005118;-85
2022/01/13 01:01:31;;;;;;;10.70;8.68;;;2.30;99.90;;;;;;7333320;19;20347;-80
2022/01/13 01:18:48;;;;;;;12.93;8.98;;;2.40;99.90;;;;;;7409717;19;20368;-87
2022/01/13 02:16:46;;;;;;;14.05;11.68;;;2.80;99.90;;;;;;7262536;19;2004588;-86
2022/01/13 02:19:17;;;;;;;15.55;11.73;;;2.80;99.90;;;;;;7229284;19;2004460;-81
2022/01/13 02:21:50;;;;;;;16.13;11.50;;;2.80;99.90;;;;;;7352906;19;20304;-80
2022/01/13 02:24:23;;;;;;;13.23;11.00;;;2.80;99.90;;;;;;7344485;19;20341;-82
2022/01/13 02:27:00;;;;;;;14.60;11.20;;;2.80;99.90;;;;;;7337261;19;20847;-82
2022/01/13 02:30:15;;;;;;;15.40;12.18;;;2.80;99.90;;;;;;7299589;19;21040;-83
2022/01/13 02:34:03;;;;;;;15.90;11.80;;;2.90;99.90;;;;;;7104979;19;2004911;-81
2022/01/13 02:37:29;;;;;;;15.20;11.60;;;2.80;99.90;;;;;;7381746;19;20352;-88
2022/01/13 02:40:59;;;;;;;15.88;11.80;;;2.80;99.90;;;;;;7117341;19;2004505;-86
2022/01/13 02:43:41;;;;;;;13.70;10.95;;;2.90;99.90;;;;;;7189097;19;2004234;-83
2022/01/13 02:53:26;;;;;;;14.10;11.07;;;2.90;99.90;;;;;;7406062;19;20381;-87
2022/01/13 02:56:27;;;;;;;14.32;11.27;;;2.90;99.90;;;;;;7238520;19;2004347;-82
2022/01/13 02:59:20;;;;;;;13.80;11.30;;;2.90;99.90;;;;;;7203871;19;2004611;-84
2022/01/13 03:02:03;;;;;;;13.23;10.90;;;2.90;99.90;;;;;;7209837;19;2004442;-84
2022/01/13 03:05:01;;;;;;;15.07;11.00;;;2.90;99.90;;;;;;7315495;19;20348;-81
2022/01/13 03:07:56;;;;;;;16.02;11.75;;;2.90;99.90;;;;;;7251975;19;2004389;-83
2022/01/13 03:10:32;;;;;;;14.27;10.98;;;2.90;99.90;;;;;;7340076;19;20341;-82
2022/01/13 03:13:22;;;;;;;16.25;12.52;;;2.90;99.90;;;;;;7319462;19;20321;-81
2022/01/13 03:16:28;;;;;;;12.25;10.63;;;2.90;99.90;;;;;;7191802;19;2004355;-81
2022/01/13 03:25:59;;;;;;;13.32;10.52;;;2.90;99.90;;;;;;7277086;19;20344;-84
2022/01/13 03:28:30;;;;;;;13.60;10.43;;;3.00;99.90;;;;;;7348953;19;20316;-82
2022/01/13 03:31:08;;;;;;;12.93;10.30;;;3.00;99.90;;;;;;7331638;19;20324;-81
2022/01/13 03:33:43;;;;;;;13.50;11.23;;;2.90;99.90;;;;;;7340062;19;20336;-87
2022/01/13 03:36:13;;;;;;;14.10;11.00;;;2.90;99.90;;;;;;7350893;19;20328;-83
2022/01/13 03:38:40;;;;;;;18.50;11.18;;;3.00;99.90;;;;;;7338001;19;20403;-79
2022/01/13 03:41:07;;;;;;;13.38;10.32;;;3.00;99.90;;;;;;7366885;19;20338;-81
2022/01/13 03:43:36;;;;;;;15.05;10.60;;;3.00;99.90;;;;;;7358580;19;20353;-79
2022/01/13 03:46:05;;;;;;;14.82;11.00;;;2.90;99.90;;;;;;7380224;19;20325;-80
2022/01/13 03:48:31;;;;;;;13.50;10.68;;;2.90;99.90;;;;;;7374543;19;21058;-83
2022/01/13 03:50:57;;;;;;;13.07;10.00;;;2.90;99.90;;;;;;7382283;19;20316;-79
2022/01/13 03:54:02;;;;;;;11.60;10.00;;;3.00;99.90;;;;;;7377384;19;20376;-81
2022/01/13 03:56:42;;;;;;;14.25;10.45;;;2.90;99.90;;;;;;7261541;19;2004291;-81
2022/01/13 03:59:38;;;;;;;13.40;10.65;;;2.90;99.90;;;;;;7380078;19;20727;-81
2022/01/13 04:02:04;;;;;;;13.32;9.85;;;3.00;99.90;;;;;;7278792;19;2004650;-78
2022/01/13 04:04:33;;;;;;;11.40;9.67;;;2.90;99.90;;;;;;7380616;19;20369;-82
2022/01/13 04:07:18;;;;;;;13.55;9.98;;;3.00;99.90;;;;;;7370475;19;20374;-79
2022/01/13 04:09:44;;;;;;;12.82;9.95;;;2.90;99.90;;;;;;7378074;19;20332;-80
2022/01/13 04:12:11;;;;;;;12.97;9.17;;;2.90;99.90;;;;;;7383037;19;20305;-82
2022/01/13 04:14:46;;;;;;;16.38;9.77;;;2.90;99.90;;;;;;7380663;19;20300;-84
2022/01/13 04:17:16;;;;;;;12.13;9.50;;;2.90;99.90;;;;;;7375220;19;20412;-83
2022/01/13 04:19:42;;;;;;;10.52;8.88;;;2.90;99.90;;;;;;7374220;19;20997;-82
2022/01/13 04:22:09;;;;;;;14.43;9.27;;;2.90;99.90;;;;;;7370348;19;20801;-81
2022/01/13 04:24:41;;;;;;;12.65;9.23;;;2.80;99.90;;;;;;7375006;19;20313;-77
2022/01/13 04:27:08;;;;;;;13.30;9.20;;;2.90;99.90;;;;;;7379882;19;20347;-78
2022/01/13 04:29:41;;;;;;;9.98;8.55;;;2.80;99.90;;;;;;7378053;19;20317;-79
2022/01/13 04:32:07;;;;;;;11.98;8.52;;;2.90;99.90;;;;;;7376816;19;20845;-78
2022/01/13 04:34:34;;;;;;;9.30;7.90;;;2.80;99.90;;;;;;7377996;19;20715;-78
2022/01/13 04:37:00;;;;;;;11.98;9.27;;;2.70;99.90;;;;;;7377478;19;20336;-79
2022/01/13 04:39:27;;;;;;;12.85;9.23;;;2.80;99.90;;;;;;7363014;19;20341;-79
2022/01/13 04:41:54;;;;;;;14.10;9.48;;;2.80;99.90;;;;;;7372940;19;20313;-80
2022/01/13 04:44:24;;;;;;;11.85;9.10;;;2.80;99.90;;;;;;7375131;19;20897;-80
2022/01/13 04:46:53;;;;;;;12.85;9.30;;;2.80;99.90;;;;;;7375156;19;20321;-85
2022/01/13 04:49:19;;;;;;;10.55;9.02;;;2.80;99.90;;;;;;7371460;19;20316;-79
2022/01/13 04:51:46;;;;;;;14.35;9.18;;;2.80;99.90;;;;;;7374917;19;20320;-79
2022/01/13 04:54:12;;;;;;;12.07;9.40;;;2.70;99.90;;;;;;7345808;19;20421;-85
2022/01/13 04:59:05;;;;;;;12.60;9.15;;;2.70;99.90;;;;;;7379284;19;20332;-80
2022/01/13 05:01:31;;;;;;;11.00;9.60;;;2.80;99.90;;;;;;7377856;19;20309;-82
2022/01/13 05:03:59;;;;;;;13.45;10.40;;;2.80;99.90;;;;;;7357071;19;20289;-84
2022/01/13 05:06:27;;;;;;;11.55;9.32;;;2.70;99.90;;;;;;7383148;19;20317;-81
2022/01/13 05:08:56;;;;;;;13.82;10.00;;;2.60;99.90;;;;;;7358446;19;20327;-81
2022/01/13 05:11:24;;;;;;;13.32;10.90;;;2.80;99.90;;;;;;7385294;19;20320;-82
2022/01/13 05:13:50;;;;;;;11.77;10.05;;;2.60;99.90;;;;;;7377235;19;20329;-80
2022/01/13 05:16:22;;;;;;;13.75;10.32;;;2.60;99.90;;;;;;7387901;19;20328;-78
2022/01/13 05:24:23;;;;;;;12.47;10.20;;;2.60;99.90;;;;;;7258119;19;2004557;-81
2022/01/13 05:26:49;;;;;;;11.35;9.38;;;2.50;99.90;;;;;;7382776;19;20321;-81
2022/01/13 05:29:19;;;;;;;10.90;9.55;;;2.60;99.90;;;;;;7386367;19;20296;-79
2022/01/13 05:31:45;;;;;;;14.23;11.07;;;2.50;99.90;;;;;;7387391;19;20309;-80
2022/01/13 05:34:12;;;;;;;12.38;10.25;;;2.50;99.90;;;;;;7377575;19;20400;-79
2022/01/13 05:36:38;;;;;;;13.65;10.93;;;2.50;99.90;;;;;;7378607;19;20652;-78
2022/01/13 05:39:04;;;;;;;14.63;11.25;;;2.50;99.90;;;;;;7344964;19;20300;-81
2022/01/13 05:41:31;;;;;;;14.70;10.38;;;2.50;99.90;;;;;;7372778;19;20304;-79
2022/01/13 05:43:58;;;;;;;13.60;10.38;;;2.50;99.90;;;;;;7387640;19;20690;-82
2022/01/13 05:46:25;;;;;;;13.38;10.25;;;2.50;99.90;;;;;;7379047;19;20337;-82
2022/01/13 05:48:54;;;;;;;13.23;9.82;;;2.60;99.90;;;;;;7381114;19;20297;-83
2022/01/13 05:51:21;;;;;;;13.52;10.18;;;2.50;99.90;;;;;;7384132;19;20324;-82
2022/01/13 05:53:48;;;;;;;13.73;9.93;;;2.50;99.90;;;;;;7374763;19;20297;-81
2022/01/13 05:56:15;;;;;;;13.40;10.23;;;2.50;99.90;;;;;;7377993;19;20320;-80
2022/01/13 05:58:41;;;;;;;12.80;10.88;;;2.50;99.90;;;;;;7384050;19;20336;-79
2022/01/13 06:01:07;;;;;;;13.15;10.73;;;2.50;99.90;;;;;;7361146;19;20355;-81
2022/01/13 06:03:34;;;;;;;13.57;10.55;;;2.50;99.90;;;;;;7380659;19;20340;-80
2022/01/13 06:06:01;;;;;;;14.35;11.13;;;2.60;99.90;;;;;;7381698;19;20316;-79
2022/01/13 06:08:27;;;;;;;15.05;11.38;;;2.60;99.90;;;;;;7372856;19;20297;-80
2022/01/13 06:11:09;;;;;;;16.27;11.23;;;2.60;99.90;;;;;;7381989;19;20328;-85
2022/01/13 06:13:35;;;;;;;15.07;10.63;;;2.60;99.90;;;;;;7375799;19;20371;-78
2022/01/13 06:16:01;;;;;;;14.57;10.98;;;2.60;99.90;;;;;;7383010;19;20352;-80
2022/01/13 06:18:28;;;;;;;11.13;9.85;;;2.50;99.90;;;;;;7376197;19;20313;-81
2022/01/13 06:20:54;;;;;;;14.20;10.53;;;2.60;99.90;;;;;;7381360;19;20308;-81
2022/01/13 06:23:20;;;;;;;14.48;10.25;;;2.50;99.90;;;;;;7381064;19;20747;-79
2022/01/13 06:25:47;;;;;;;13.37;10.10;;;2.50;99.90;;;;;;7378790;19;20323;-82
2022/01/13 06:28:13;;;;;;;14.32;11.00;;;2.60;99.90;;;;;;7375148;19;20313;-78
2022/01/13 06:30:39;;;;;;;13.52;10.18;;;2.60;99.90;;;;;;7384364;19;20836;-79
2022/01/13 06:33:06;;;;;;;13.13;10.00;;;2.60;99.90;;;;;;7384297;19;20308;-78
2022/01/13 06:35:32;;;;;;;15.18;10.30;;;2.50;99.90;;;;;;7384374;19;20328;-78
2022/01/13 06:37:57;;;;;;;13.75;11.15;;;2.60;99.90;;;;;;7387328;19;20602;-82
2022/01/13 06:40:24;;;;;;;14.40;10.50;;;2.50;99.90;;;;;;7379317;19;20325;-79
2022/01/13 06:42:50;;;;;;;15.40;10.75;;;2.50;99.90;;;;;;7384915;19;20320;-80
2022/01/13 06:45:16;;;;;;;15.90;11.15;;;2.50;99.90;;;;;;7384075;19;20328;-83
2022/01/13 06:47:42;;;;;;;14.93;10.93;;;2.60;99.90;;;;;;7379432;19;20411;-81
2022/01/13 06:50:09;;;;;;;15.27;10.50;;;2.70;99.90;;;;;;7384201;19;20326;-78
2022/01/13 06:52:36;;;;;;;13.27;10.13;;;2.60;99.90;;;;;;7383188;19;20323;-81
2022/01/13 06:55:04;;;;;;;13.98;10.35;;;2.60;99.90;;;;;;7379917;19;20969;-81
2022/01/13 06:57:30;;;;;;;12.95;10.55;;;2.60;99.90;;;;;;7386530;19;20327;-86
2022/01/13 06:59:56;;;;;;;15.02;10.75;;;2.60;99.90;;;;;;7384251;19;20380;-79
2022/01/13 07:02:24;;;;;;;11.87;10.53;;;2.60;99.90;;;;;;7383058;19;20332;-82
2022/01/13 07:04:50;;;;;;;16.80;11.25;;;2.60;99.90;;;;;;7377599;19;20311;-82
2022/01/13 07:07:17;;;;;;;14.63;11.10;;;2.60;99.90;;;;;;7378067;19;20331;-80
2022/01/13 07:09:44;;;;;;;12.55;10.25;;;2.60;99.90;;;;;;7377792;19;20320;-80
2022/01/13 07:12:10;;;;;;;16.20;11.60;;;2.60;99.90;;;;;;7379353;19;20308;-80
2022/01/13 07:14:37;;;;;;;12.73;11.25;;;2.60;99.90;;;;;;7382485;19;20399;-78
2022/01/13 07:17:03;;;;;;;15.02;11.10;;;2.60;99.90;;;;;;7369826;19;20340;-79
2022/01/13 07:19:30;;;;;;;15.63;11.73;;;2.60;99.90;;;;;;7377422;19;20309;-78
2022/01/13 07:21:56;;;;;;;12.77;11.32;;;2.60;99.90;;;;;;7375835;19;20372;-80
2022/01/13 07:24:22;;;;;;;16.55;11.75;;;2.70;99.90;;;;;;7368202;19;20321;-79
2022/01/13 07:26:48;;;;;;;16.33;12.18;;;2.50;99.90;;;;;;7370669;19;20323;-78
2022/01/13 07:29:14;;;;;;;18.17;12.35;;;2.60;99.90;;;;;;7379265;19;20316;-85
2022/01/13 07:31:40;;;;;;;13.88;10.98;;;2.60;99.90;;;;;;7371486;19;20327;-84
2022/01/13 07:34:07;;;;;;;13.85;10.88;;;2.60;99.90;;;;;;7380717;19;20325;-82
2022/01/13 07:36:34;;;;;;;13.82;11.23;;;2.60;99.90;;;;;;7372721;19;20408;-78
2022/01/13 07:39:01;;;;;;;16.35;11.75;;;2.60;99.90;;;;;;7376579;19;20301;-84
2022/01/13 07:41:28;;;;;;;14.43;12.03;;;2.60;99.90;;;;;;7378455;19;20408;-79
2022/01/13 07:43:55;;;;;;;17.25;12.25;;;2.60;99.90;;;;;;7378640;19;20301;-80
2022/01/13 07:46:24;;;;;;;15.15;11.73;;;2.60;99.90;;;;;;7375983;19;20316;-79
2022/01/13 07:48:51;;;;;;;15.32;11.75;;;2.60;99.90;;;;;;7371137;19;20327;-79
2022/01/13 07:51:17;;;;;;;17.30;12.38;;;2.60;99.90;;;;;;7377633;19;20384;-81
2022/01/13 07:53:43;;;;;;;16.52;12.60;;;2.70;99.90;;;;;;7377907;19;20324;-76
2022/01/13 07:56:10;;;;;;;17.48;11.63;;;2.60;99.90;;;;;;7377147;19;20337;-79
2022/01/13 07:58:37;;;;;;;16.80;12.03;;;2.70;99.90;;;;;;7371796;19;20338;-80
2022/01/13 08:01:04;;;;;;;17.65;11.80;;;2.60;99.90;;;;;;7369729;19;20327;-79
2022/01/13 08:03:30;;;;;;;15.43;11.63;;;2.70;99.90;;;;;;7363922;19;20306;-78
2022/01/13 08:05:58;;;;;;;15.82;11.68;;;2.70;99.90;;;;;;7379851;19;20320;-84
2022/01/13 08:08:25;;;;;;;18.05;12.73;;;2.60;99.90;;;;;;7380496;19;20423;-78
2022/01/13 08:10:51;;;;;;;20.08;13.07;;;2.60;99.90;;;;;;7380636;19;20344;-77
2022/01/13 08:13:16;;;;;;;18.17;12.00;;;2.60;99.90;;;;;;7372958;19;20316;-78
2022/01/13 08:15:43;;;;;;;21.57;12.60;;;2.70;99.90;;;;;;7381315;19;20400;-78
2022/01/13 08:20:53;;;;;;;15.63;12.23;;;2.70;99.90;;;;;;7370423;19;20937;-79
2022/01/13 08:23:19;;;;;;;16.95;12.95;;;2.70;99.90;;;;;;7376204;19;20377;-78
2022/01/13 08:25:45;;;;;;;17.88;12.65;;;2.70;99.90;;;;;;7355959;19;21130;-78
2022/01/13 08:28:11;;;;;;;19.05;12.48;;;2.70;99.90;;;;;;7383331;19;20312;-77
2022/01/13 08:30:38;;;;;;;16.98;12.35;;;2.70;99.90;;;;;;7382512;19;20391;-78
2022/01/13 08:33:04;;;;;;;16.10;12.15;;;2.70;99.90;;;;;;7380258;19;20301;-79
2022/01/13 08:35:30;;;;;;;15.80;12.10;;;2.70;99.90;;;;;;7386624;19;20317;-80
2022/01/13 08:38:04;;;;;;;15.48;11.45;;;2.70;99.90;;;;;;7383112;19;20327;-80
2022/01/13 08:40:34;;;;;;;17.02;12.98;;;2.70;99.90;;;;;;7389760;19;20316;-80
2022/01/13 08:43:02;;;;;;;16.52;12.95;;;2.80;99.90;;;;;;7385949;19;20418;-79
2022/01/13 08:45:29;;;;;;;16.10;11.80;;;2.80;99.90;;;;;;7383486;19;20834;-79
2022/01/13 08:47:55;;;;;;;20.75;12.07;;;2.80;99.90;;;;;;7383389;19;20319;-81
2022/01/13 08:50:20;;;;;;;17.08;12.52;;;2.80;99.90;;;;;;7389235;19;20655;-79
2022/01/13 08:52:46;;;;;;;16.23;11.90;;;2.80;99.90;;;;;;7373045;19;20327;-83
2022/01/13 08:55:12;;;;;;;16.13;12.23;;;2.70;99.90;;;;;;7387375;19;20308;-88
2022/01/13 08:57:39;;;;;;;14.07;11.67;;;2.80;99.90;;;;;;7389158;19;20301;-81
2022/01/13 09:00:07;;;;;;;18.42;13.07;;;2.80;99.90;;;;;;7384704;19;20690;-83
2022/01/13 09:02:33;;;;;;;18.75;13.05;;;2.80;99.90;;;;;;7388256;19;20339;-79
2022/01/13 09:05:03;;;;;;;18.80;12.43;;;2.80;99.90;;;;;;7385720;19;20860;-83
2022/01/13 09:07:29;;;;;;;18.58;12.93;;;2.80;99.90;;;;;;7386914;19;20312;-86
2022/01/13 09:09:56;;;;;;;16.95;12.00;;;2.80;99.90;;;;;;7389339;19;20304;-86
2022/01/13 09:12:23;;;;;;;18.10;12.60;;;2.80;99.90;;;;;;7387235;19;20308;-85
2022/01/13 09:14:59;;;;;;;15.27;12.13;;;2.80;99.90;;;;;;7378186;19;20334;-83
2022/01/13 09:17:26;;;;;;;17.17;11.93;;;2.90;99.90;;;;;;7380068;19;20329;-86
2022/01/13 09:19:53;;;;;;;20.80;13.10;;;2.90;99.90;;;;;;7380978;19;20327;-81
2022/01/13 09:22:20;;;;;;;16.70;12.07;;;2.90;99.90;;;;;;7387174;19;20355;-84
2022/01/13 09:24:46;;;;;;;17.27;12.32;;;2.90;99.90;;;;;;7376176;19;20392;-84
2022/01/13 09:27:12;;;;;;;20.52;13.35;;;2.90;99.90;;;;;;7388962;19;20321;-79
2022/01/13 09:29:39;;;;;;;16.15;11.80;;;2.90;99.90;;;;;;7374859;19;20324;-84
2022/01/13 09:32:06;;;;;;;16.77;11.52;;;3.00;99.90;;;;;;7375722;19;20313;-87
2022/01/13 09:34:33;;;;;;;20.20;12.48;;;3.00;99.90;;;;;;7386119;19;20321;-89
2022/01/13 09:36:59;;;;;;;16.70;11.77;;;3.00;99.90;;;;;;7385336;19;20964;-88
2022/01/13 09:39:26;;;;;;;14.30;11.73;;;3.00;99.90;;;;;;7383868;19;20324;-79
2022/01/13 09:41:53;;;;;;;14.68;11.35;;;3.00;99.90;;;;;;7391288;19;20323;-87
2022/01/13 09:44:19;;;;;;;14.23;11.73;;;3.00;99.90;;;;;;7375585;19;20700;-84
2022/01/13 09:46:46;;;;;;;15.73;11.38;;;3.00;99.90;;;;;;7385921;19;20416;-82
2022/01/13 09:49:12;;;;;;;15.20;11.82;;;3.00;99.90;;;;;;7385181;19;20750;-83
2022/01/13 09:51:44;;;;;;;14.98;11.20;;;3.10;99.90;;;;;;7384390;19;20340;-81
2022/01/13 09:54:11;;;;;;;17.45;11.88;;;3.00;99.90;;;;;;7383365;19;20720;-86
2022/01/13 09:56:38;;;;;;;15.65;11.30;;;3.10;99.90;;;;;;7387978;19;20327;-82
2022/01/13 09:59:06;;;;;;;14.55;11.25;;;3.10;99.90;;;;;;7382640;19;20345;-84
2022/01/13 10:01:33;;;;;;;15.00;11.40;;;3.10;99.90;;;;;;7366213;19;20346;-85
2022/01/13 10:04:00;;;;;;;18.35;11.65;;;3.10;99.90;;;;;;7382354;19;20320;-84
2022/01/13 10:06:26;;;;;;;15.30;11.10;;;3.10;99.90;;;;;;7387066;19;20749;-79
2022/01/13 10:08:54;;;;;;;18.80;11.77;;;3.10;99.90;;;;;;7384154;19;20305;-82
2022/01/13 10:11:54;;;;;;;21.42;12.50;;;3.10;99.90;;;;;;7364444;19;20323;-80
2022/01/13 10:16:54;;;;;;;18.52;10.98;;;3.20;99.90;;;;;;7369716;19;20333;-81
2022/01/13 10:19:36;;;;;;;13.52;10.52;;;3.30;99.90;;;;;;7379054;19;20420;-82
2022/01/13 10:22:33;;;;;;;16.85;12.60;;;3.30;99.90;;;;;;7366126;19;20333;-80
2022/01/13 10:24:59;;;;;;;14.77;10.73;;;3.30;99.90;;;;;;7280281;19;2006849;-82
2022/01/13 10:27:31;;;;;;;14.00;10.33;;;3.30;99.90;;;;;;7370712;19;20337;-83
2022/01/13 10:30:00;;;;;;;13.52;10.23;;;3.30;99.90;;;;;;7382954;19;20335;-81
2022/01/13 10:32:40;;;;;;;14.48;10.52;;;3.30;99.90;;;;;;7369957;19;20374;-84
2022/01/13 10:35:14;;;;;;;16.47;10.80;;;3.40;99.90;;;;;;7371184;19;20455;-79
2022/01/13 10:37:43;;;;;;;12.63;9.90;;;3.30;99.90;;;;;;7378879;19;20336;-80
2022/01/13 10:40:11;;;;;;;14.68;11.00;;;3.40;99.90;;;;;;7376614;19;20848;-78
2022/01/13 10:45:27;;;;;;;14.27;10.75;;;3.40;99.90;;;;;;7379809;19;20320;-79
2022/01/13 10:48:09;;;;;;;17.40;11.43;;;3.40;99.90;;;;;;7386890;19;20328;-86
2022/01/13 10:50:42;;;;;;;18.70;11.32;;;3.40;99.90;;;;;;7275942;19;2004623;-77
2022/01/13 10:53:30;;;;;;;19.30;11.60;;;3.40;99.90;;;;;;7382814;19;20395;-78
2022/01/13 10:56:04;;;;;;;13.45;10.82;;;3.40;99.90;;;;;;7262992;19;2004510;-78
2022/01/13 10:58:41;;;;;;;15.40;11.20;;;3.50;99.90;;;;;;7371526;19;20323;-82
2022/01/13 11:01:13;;;;;;;18.60;13.23;;;3.50;99.90;;;;;;7274474;19;2004420;-80
2022/01/13 11:03:41;;;;;;;13.43;10.20;;;3.60;99.90;;;;;;7373992;19;20362;-82
2022/01/13 11:06:09;;;;;;;14.50;10.85;;;3.60;99.90;;;;;;7381494;19;21097;-78
2022/01/13 11:08:41;;;;;;;13.07;9.70;;;3.50;99.90;;;;;;7357752;19;21175;-81
2022/01/13 11:11:45;;;;;;;16.30;10.03;;;3.50;99.90;;;;;;7377145;19;20324;-80
2022/01/13 11:14:24;;;;;;;16.63;10.18;;;3.60;99.90;;;;;;7166762;19;2004491;-79
2022/01/13 11:16:52;;;;;;;14.50;10.33;;;3.70;99.90;;;;;;7276335;19;2004774;-80
2022/01/13 11:19:18;;;;;;;13.23;10.63;;;3.70;99.90;;;;;;7382702;19;20356;-79
2022/01/13 11:21:45;;;;;;;15.75;10.93;;;3.70;99.90;;;;;;7383730;19;20297;-83
2022/01/13 11:24:11;;;;;;;15.95;11.13;;;3.70;99.90;;;;;;7382473;19;20312;-85
2022/01/13 11:26:37;;;;;;;15.55;11.48;;;3.60;99.90;;;;;;7377797;19;20393;-83
2022/01/13 11:29:06;;;;;;;18.20;11.02;;;3.60;99.90;;;;;;7379484;19;20311;-80
2022/01/13 11:31:39;;;;;;;14.60;10.48;;;3.60;99.90;;;;;;7371067;19;23157;-78
2022/01/13 11:34:07;;;;;;;14.80;11.38;;;3.70;99.90;;;;;;7377358;19;20301;-83
2022/01/13 11:36:35;;;;;;;13.77;10.23;;;3.70;99.90;;;;;;7375299;19;20359;-80
2022/01/13 11:39:07;;;;;;;13.93;10.47;;;3.70;99.90;;;;;;7363423;19;20345;-77
2022/01/13 11:41:33;;;;;;;12.50;9.63;;;3.80;99.90;;;;;;7380116;19;20337;-83
2022/01/13 11:44:14;;;;;;;15.90;9.80;;;3.80;99.90;;;;;;7374112;19;20333;-80
2022/01/13 11:46:45;;;;;;;12.07;9.60;;;3.80;99.90;;;;;;7371946;19;20312;-80
2022/01/13 11:49:24;;;;;;;13.32;10.45;;;3.80;99.90;;;;;;7377059;19;20336;-79
2022/01/13 11:52:10;;;;;;;14.18;10.23;;;3.80;99.90;;;;;;7384708;19;20336;-84
2022/01/13 11:54:38;;;;;;;14.70;10.63;;;3.80;99.90;;;;;;7276701;19;2004437;-81
2022/01/13 11:57:34;;;;;;;18.63;10.65;;;3.90;99.90;;;;;;7379979;19;20356;-81
2022/01/13 12:00:00;;;;;;;12.45;9.85;;;3.80;99.90;;;;;;7277696;19;2004570;-82
2022/01/13 12:02:34;;;;;;;14.18;9.73;;;3.80;99.90;;;;;;7378703;19;20315;-78
2022/01/13 12:05:17;;;;;;;14.07;10.23;;;3.80;99.90;;;;;;7381802;19;20309;-79
2022/01/13 12:07:45;;;;;;;17.80;10.63;;;3.90;99.90;;;;;;7378692;19;20324;-80
2022/01/13 12:10:34;;;;;;;14.98;10.43;;;3.90;99.90;;;;;;7380764;19;20332;-82
2022/01/13 12:13:27;;;;;;;13.87;10.70;;;3.80;99.90;;;;;;7282945;19;2004496;-80
2022/01/13 12:15:53;;;;;;;15.00;11.20;;;3.80;99.90;;;;;;7277806;19;2004431;-82
2022/01/13 12:18:24;;;;;;;14.88;11.00;;;3.80;99.90;;;;;;7373555;19;20316;-77
2022/01/13 12:21:08;;;;;;;13.95;10.38;;;3.70;99.90;;;;;;7383181;19;20343;-78
2022/01/13 12:23:38;;;;;;;15.60;10.75;;;3.80;99.90;;;;;;7273476;19;2004667;-80
2022/01/13 12:26:34;;;;;;;18.88;11.45;;;3.80;99.90;;;;;;7380283;19;20336;-84
2022/01/13 12:29:10;;;;;;;15.60;9.93;;;3.80;99.90;;;;;;7278119;19;2004376;-80
2022/01/13 12:32:04;;;;;;;15.73;11.40;;;3.80;99.90;;;;;;7378774;19;20377;-79
2022/01/13 12:34:32;;;;;;;13.98;10.80;;;3.80;99.90;;;;;;7380967;19;20339;-81
2022/01/13 12:37:23;;;;;;;16.90;11.60;;;4.00;99.90;;;;;;7383999;19;20385;-78
2022/01/13 12:39:57;;;;;;;15.27;10.48;;;3.90;99.90;;;;;;7277943;19;2004444;-80
2022/01/13 12:42:51;;;;;;;15.47;10.63;;;3.90;99.90;;;;;;7378094;19;20344;-82
2022/01/13 12:45:28;;;;;;;13.80;10.35;;;3.90;99.90;;;;;;7276372;19;2006049;-81
2022/01/13 12:48:14;;;;;;;15.07;10.63;;;4.10;99.90;;;;;;7380938;19;20335;-79
2022/01/13 12:50:42;;;;;;;14.93;10.95;;;4.00;99.90;;;;;;7384096;19;20868;-80
2022/01/13 12:53:13;;;;;;;15.02;9.88;;;4.00;99.90;;;;;;7380341;19;20389;-82
2022/01/13 12:55:45;;;;;;;12.20;9.80;;;4.00;99.90;;;;;;7386537;19;20428;-86
2022/01/13 12:58:12;;;;;;;11.85;9.52;;;4.00;99.90;;;;;;7282185;19;2004473;-80
2022/01/13 13:00:39;;;;;;;15.35;9.63;;;4.00;99.90;;;;;;7377803;19;20350;-81
2022/01/13 13:03:06;;;;;;;13.35;9.90;;;4.00;99.90;;;;;;7370549;19;20328;-85
2022/01/13 13:05:38;;;;;;;13.30;9.57;;;4.10;99.90;;;;;;7386153;19;20421;-80
2022/01/13 13:08:06;;;;;;;12.00;8.97;;;4.10;99.90;;;;;;7383360;19;20803;-80
2022/01/13 13:10:32;;;;;;;13.07;9.45;;;4.00;99.90;;;;;;7367115;19;20379;-80
2022/01/13 13:13:01;;;;;;;13.85;9.80;;;4.10;99.90;;;;;;7376166;19;20316;-82
2022/01/13 13:17:54;;;;;;;11.95;9.27;;;4.20;99.90;;;;;;7379963;19;20320;-78
2022/01/13 13:20:24;;;;;;;12.05;8.90;;;4.20;99.90;;;;;;7383783;19;20336;-81
2022/01/13 13:22:50;;;;;;;12.63;8.35;;;4.20;99.90;;;;;;7383073;19;20404;-80
2022/01/13 13:25:46;;;;;;;12.60;8.57;;;4.30;99.90;;;;;;7383577;19;20321;-83
2022/01/13 13:28:25;;;;;;;11.65;8.88;;;4.30;99.90;;;;;;7283857;19;2004552;-85
2022/01/13 13:31:13;;;;;;;11.98;8.75;;;4.20;99.90;;;;;;7274004;19;2004425;-84
2022/01/13 13:33:55;;;;;;;13.00;10.25;;;4.20;99.90;;;;;;7261612;19;2004517;-78
2022/01/13 13:36:29;;;;;;;16.25;10.85;;;4.20;99.90;;;;;;7380004;19;20348;-80
2022/01/13 13:38:56;;;;;;;18.15;11.32;;;4.20;99.90;;;;;;7380556;19;20342;-80
2022/01/13 13:41:28;;;;;;;13.75;10.27;;;4.20;99.90;;;;;;7384370;19;20522;-79
2022/01/13 13:43:54;;;;;;;12.13;8.88;;;4.20;99.90;;;;;;7385510;19;20342;-86
2022/01/13 13:46:21;;;;;;;11.55;8.60;;;4.20;99.90;;;;;;7384260;19;20325;-77
2022/01/13 13:48:47;;;;;;;12.35;9.27;;;4.20;99.90;;;;;;7380547;19;20312;-78
2022/01/13 13:51:15;;;;;;;10.82;8.82;;;4.30;99.90;;;;;;7383653;19;20307;-79
2022/01/13 13:54:18;;;;;;;10.93;9.20;;;4.20;99.90;;;;;;7385223;19;20347;-84
2022/01/13 13:56:48;;;;;;;10.50;8.25;;;4.20;99.90;;;;;;7280990;19;2006957;-85
2022/01/13 13:59:18;;;;;;;12.25;8.02;;;4.20;99.90;;;;;;7379544;19;20315;-78
2022/01/13 14:01:55;;;;;;;13.43;9.52;;;4.20;99.90;;;;;;7382015;19;20348;-78
2022/01/13 14:04:34;;;;;;;9.25;8.15;;;4.20;99.90;;;;;;7279968;19;2004379;-85
2022/01/13 14:07:00;;;;;;;15.95;9.70;;;4.20;99.90;;;;;;7281873;19;2004443;-83
2022/01/13 14:09:39;;;;;;;12.60;8.73;;;4.20;99.90;;;;;;7378936;19;20329;-80
2022/01/13 14:12:07;;;;;;;9.95;8.52;;;4.30;99.90;;;;;;7377578;19;20364;-81
2022/01/13 14:14:40;;;;;;;12.05;8.60;;;4.30;99.90;;;;;;7377503;19;20351;-77
2022/01/13 14:17:07;;;;;;;11.55;8.23;;;4.30;99.90;;;;;;7379606;19;20364;-77
2022/01/13 14:19:34;;;;;;;11.73;8.77;;;4.30;99.90;;;;;;7376331;19;20360;-77
2022/01/13 14:22:00;;;;;;;13.52;9.48;;;4.40;99.90;;;;;;7378347;19;20655;-79
2022/01/13 14:24:29;;;;;;;11.87;8.90;;;4.30;99.90;;;;;;7373547;19;20336;-80
2022/01/13 14:27:04;;;;;;;12.95;9.30;;;4.30;99.90;;;;;;7379144;19;20304;-80
2022/01/13 14:29:31;;;;;;;13.25;8.90;;;4.30;99.90;;;;;;7277583;19;2007220;-77
2022/01/13 14:32:22;;;;;;;12.80;8.63;;;4.30;99.90;;;;;;7377976;19;20336;-79
2022/01/13 14:34:52;;;;;;;11.35;8.27;;;4.30;99.90;;;;;;7279093;19;2004548;-79
2022/01/13 14:37:22;;;;;;;12.57;8.52;;;4.30;99.90;;;;;;7383997;19;20415;-84
2022/01/13 14:40:11;;;;;;;11.35;8.65;;;4.30;99.90;;;;;;7375814;19;20308;-79
2022/01/13 14:42:40;;;;;;;10.50;8.57;;;4.40;99.90;;;;;;7272893;19;2004559;-78
2022/01/13 14:45:16;;;;;;;10.43;8.50;;;4.50;99.90;;;;;;7375800;19;20332;-80
2022/01/13 14:47:44;;;;;;;11.73;8.83;;;4.40;99.90;;;;;;7380695;19;20344;-79
2022/01/13 14:50:10;;;;;;;10.77;9.07;;;4.50;99.90;;;;;;7381422;19;20351;-77
2022/01/13 14:52:36;;;;;;;12.00;9.02;;;4.40;99.90;;;;;;7349087;19;20312;-83
2022/01/13 14:55:04;;;;;;;11.32;8.50;;;4.40;99.90;;;;;;7381675;19;20324;-81
2022/01/13 14:57:33;;;;;;;11.50;8.77;;;4.40;99.90;;;;;;7382135;19;21200;-77
2022/01/13 15:00:00;;;;;;;14.63;9.23;;;4.40;99.90;;;;;;7383696;19;21103;-80
2022/01/13 15:02:27;;;;;;;12.32;9.05;;;4.40;99.90;;;;;;7381460;19;20332;-82
2022/01/13 15:04:53;;;;;;;9.85;8.63;;;4.30;99.90;;;;;;7373563;19;20398;-80
2022/01/13 15:07:19;;;;;;;10.10;9.02;;;4.40;99.90;;;;;;7386988;19;20369;-80
2022/01/13 15:09:46;;;;;;;12.93;9.15;;;4.40;99.90;;;;;;7377286;19;20325;-80